Time;durP1;ratioP1;P1;durP2;ratioP2;P2;SDS_P1;SDS_P2;PMS_P1;PMS_P2;Temp;Humidity;BMP_temperature;BMP_pressure;BME280_temperature;BME280_humidity;BME280_pressure;Samples;Min_cycle;Max_cycle;Signal;HPM_P1;HPM_P2
2021/12/28 00:01:19;;;;;;;19.47;6.20;;;5.70;99.90;;;6.30;100.00;96468.31;5036726;28;20548;-77
2021/12/28 00:03:49;;;;;;;19.10;5.27;;;5.70;99.90;;;6.34;100.00;96461.75;5037367;28;20958;-77
2021/12/28 00:06:20;;;;;;;32.70;5.13;;;5.80;99.90;;;6.43;100.00;96457.94;5047500;28;21028;-77
2021/12/28 00:08:52;;;;;;;30.03;5.20;;;6.00;99.90;;;6.50;100.00;96463.91;5044643;28;20958;-77
2021/12/28 00:11:21;;;;;;;36.57;6.40;;;6.00;99.90;;;6.62;100.00;96458.94;5041393;28;20458;-77
2021/12/28 00:13:59;;;;;;;31.00;5.40;;;6.20;99.90;;;6.70;100.00;96450.91;5045514;28;21030;-77
2021/12/28 00:17:58;;;;;;;28.90;5.27;;;6.30;99.90;;;6.78;100.00;96450.72;5032525;28;20461;-77
2021/12/28 00:19:22;;;;;;;34.70;5.60;;;6.40;99.90;;;6.90;100.00;96456.09;5034741;28;21636;-77
2021/12/28 00:21:52;;;;;;;30.50;6.67;;;6.50;99.90;;;7.03;100.00;96459.47;5045655;28;20492;-77
2021/12/28 00:24:22;;;;;;;22.30;4.93;;;6.60;99.90;;;7.10;100.00;96459.44;5044937;28;21287;-78
2021/12/28 00:26:53;;;;;;;49.47;6.73;;;6.70;99.90;;;7.26;100.00;96451.19;5037957;28;20493;-77
2021/12/28 00:29:26;;;;;;;34.23;5.90;;;6.90;99.90;;;7.30;100.00;96452.38;5038521;28;20561;-78
2021/12/28 00:31:56;;;;;;;34.10;5.87;;;6.90;99.90;;;7.35;100.00;96446.56;5043844;28;20461;-77
2021/12/28 00:34:26;;;;;;;33.70;5.50;;;6.90;99.90;;;7.46;100.00;96449.28;5034621;28;20466;-77
2021/12/28 00:36:57;;;;;;;38.10;5.30;;;7.10;99.90;;;7.56;100.00;96456.69;5041644;28;20556;-77
2021/12/28 00:39:25;;;;;;;23.40;5.60;;;7.20;99.90;;;7.65;100.00;96445.03;5034958;28;20528;-77
2021/12/28 00:41:56;;;;;;;44.17;5.40;;;7.20;99.90;;;7.70;100.00;96453.00;5045913;28;20489;-77
2021/12/28 00:44:27;;;;;;;29.83;5.27;;;7.30;99.90;;;7.75;100.00;96447.97;5042738;28;20485;-77
2021/12/28 00:46:57;;;;;;;22.40;3.90;;;7.40;99.90;;;7.77;100.00;96447.78;5036886;28;20651;-77
2021/12/28 00:49:26;;;;;;;23.90;5.03;;;7.40;99.90;;;7.80;100.00;96448.16;5037069;28;20453;-77
2021/12/28 00:51:56;;;;;;;25.50;4.93;;;7.40;99.90;;;7.86;100.00;96444.72;5033238;28;20532;-77
2021/12/28 00:54:26;;;;;;;38.37;5.33;;;7.50;99.90;;;7.91;100.00;96441.50;5039621;28;20741;-77
2021/12/28 00:56:54;;;;;;;28.63;5.33;;;7.50;99.90;;;7.95;100.00;96434.81;5035317;28;20866;-77
2021/12/28 00:59:24;;;;;;;18.97;4.60;;;7.60;99.90;;;7.96;100.00;96444.25;5042216;28;20601;-77
2021/12/28 01:01:55;;;;;;;16.23;4.80;;;7.60;99.90;;;7.97;100.00;96438.03;5036653;28;20719;-77
2021/12/28 01:04:25;;;;;;;27.33;3.87;;;7.60;99.90;;;7.97;100.00;96435.44;5028871;28;20768;-77
2021/12/28 01:06:56;;;;;;;18.83;4.13;;;7.60;99.90;;;7.98;100.00;96432.59;5043203;28;20544;-77
2021/12/28 01:09:30;;;;;;;27.33;4.53;;;7.60;99.90;;;8.00;100.00;96424.59;5053613;28;21041;-77
2021/12/28 01:12:04;;;;;;;26.07;4.70;;;7.60;99.90;;;7.99;100.00;96431.59;5040699;28;20475;-77
2021/12/28 01:14:35;;;;;;;28.67;4.10;;;7.60;99.90;;;8.02;100.00;96441.59;5045514;28;20706;-78
2021/12/28 01:17:08;;;;;;;24.80;3.73;;;7.60;99.90;;;8.01;100.00;96439.22;5043552;28;20829;-77
2021/12/28 01:19:39;;;;;;;26.13;4.20;;;7.60;99.90;;;8.02;100.00;96452.00;5038407;28;20877;-77
2021/12/28 01:22:09;;;;;;;31.47;4.93;;;7.60;99.90;;;8.01;100.00;96454.84;5056004;28;20818;-77
2021/12/28 01:24:40;;;;;;;27.63;3.80;;;7.60;99.90;;;8.03;100.00;96447.59;5041111;28;20515;-77
2021/12/28 01:27:11;;;;;;;28.13;5.37;;;7.60;99.90;;;8.05;100.00;96433.34;5045014;28;20488;-77
2021/12/28 01:29:41;;;;;;;18.97;4.60;;;7.70;99.90;;;8.06;100.00;96439.38;5042538;28;20539;-77
2021/12/28 01:32:14;;;;;;;28.33;4.90;;;7.60;99.90;;;8.08;100.00;96429.56;5042433;28;20461;-77
2021/12/28 01:34:43;;;;;;;21.10;4.87;;;7.70;99.90;;;8.10;100.00;96427.53;5036360;28;20461;-77
2021/12/28 01:37:13;;;;;;;27.73;3.90;;;7.70;99.90;;;8.09;100.00;96423.31;5041300;28;20457;-77
2021/12/28 01:39:42;;;;;;;20.73;5.27;;;7.70;99.90;;;8.10;100.00;96419.72;5038863;28;20488;-77
2021/12/28 01:42:11;;;;;;;20.80;4.03;;;7.70;99.90;;;8.11;100.00;96413.50;5032385;28;20764;-77
2021/12/28 01:44:42;;;;;;;18.10;3.20;;;7.60;99.90;;;8.09;100.00;96408.50;5033590;28;20950;-77
2021/12/28 01:47:16;;;;;;;22.93;3.70;;;7.60;99.90;;;8.09;100.00;96402.50;5033002;28;20917;-77
2021/12/28 01:49:46;;;;;;;17.87;3.13;;;7.60;99.90;;;8.11;100.00;96403.09;5036021;28;20465;-77
2021/12/28 01:52:16;;;;;;;25.43;3.50;;;7.60;99.90;;;8.12;100.00;96409.91;5039933;28;20461;-76
2021/12/28 01:54:45;;;;;;;17.80;3.60;;;7.60;99.90;;;8.12;100.00;96399.50;5043687;28;21076;-77
2021/12/28 01:57:20;;;;;;;31.13;2.93;;;7.70;99.90;;;8.12;100.00;96394.28;5036431;28;20457;-77
2021/12/28 01:59:51;;;;;;;12.20;2.90;;;7.70;99.90;;;8.13;100.00;96390.66;5040490;28;20496;-77
2021/12/28 02:02:23;;;;;;;19.10;3.40;;;7.70;99.90;;;8.13;100.00;96375.03;5035665;28;20483;-77
2021/12/28 02:04:52;;;;;;;17.50;2.97;;;7.70;99.90;;;8.13;100.00;96389.84;5034494;28;20461;-77
2021/12/28 02:07:22;;;;;;;9.57;2.97;;;7.70;99.90;;;8.12;100.00;96377.88;5040166;28;20465;-77
2021/12/28 02:09:51;;;;;;;26.53;3.57;;;7.60;99.90;;;8.12;100.00;96373.47;5044965;28;20461;-77
2021/12/28 02:12:21;;;;;;;16.67;2.73;;;7.70;99.90;;;8.14;100.00;96374.03;5046188;28;20547;-77
2021/12/28 02:14:53;;;;;;;26.00;3.23;;;7.70;99.90;;;8.14;100.00;96371.44;5042733;28;20458;-77
2021/12/28 02:17:24;;;;;;;22.37;3.50;;;7.70;99.90;;;8.16;100.00;96366.81;5045195;28;20472;-77
2021/12/28 02:19:55;;;;;;;24.00;4.23;;;7.70;99.90;;;8.18;100.00;96361.41;5042554;28;20997;-77
2021/12/28 02:22:26;;;;;;;21.77;3.90;;;7.80;99.90;;;8.16;100.00;96358.22;5044278;28;21224;-77
2021/12/28 02:24:56;;;;;;;9.13;2.60;;;7.70;99.90;;;8.18;100.00;96351.78;5047558;28;20475;-77
2021/12/28 02:27:30;;;;;;;23.73;3.00;;;7.70;99.90;;;8.16;100.00;96356.38;5045343;28;20557;-77
2021/12/28 02:30:02;;;;;;;13.73;3.90;;;7.80;99.90;;;8.17;100.00;96349.38;5048726;28;20878;-77
2021/12/28 02:32:32;;;;;;;21.70;3.20;;;7.80;99.90;;;8.18;100.00;96341.38;5047203;28;20461;-77
2021/12/28 02:35:02;;;;;;;14.47;3.60;;;7.80;99.90;;;8.19;100.00;96342.94;5044516;28;20453;-77
2021/12/28 02:37:35;;;;;;;13.97;2.97;;;7.80;99.90;;;8.22;100.00;96334.72;5041164;28;20464;-77
2021/12/28 02:40:09;;;;;;;16.77;2.80;;;7.80;99.90;;;8.25;100.00;96325.69;5040489;28;20792;-77
2021/12/28 02:42:39;;;;;;;10.70;2.33;;;7.90;99.90;;;8.21;100.00;96330.53;5045946;28;20480;-77
2021/12/28 02:45:12;;;;;;;11.57;2.60;;;7.80;99.90;;;8.24;100.00;96322.28;5048324;28;20522;-77
2021/12/28 02:47:45;;;;;;;15.23;3.00;;;7.70;99.90;;;8.26;100.00;96319.47;5036177;28;20511;-77
2021/12/28 02:50:19;;;;;;;13.33;3.40;;;7.80;99.90;;;8.26;100.00;96306.44;5047962;28;20969;-77
2021/12/28 02:52:51;;;;;;;9.47;2.43;;;7.80;99.90;;;8.25;100.00;96303.06;5039884;28;20460;-77
2021/12/28 02:55:26;;;;;;;15.90;2.50;;;7.80;99.90;;;8.27;100.00;96295.81;5040818;28;20461;-77
2021/12/28 02:57:58;;;;;;;12.00;3.20;;;7.90;99.90;;;8.28;100.00;96288.78;5046465;28;20540;-77
2021/12/28 03:00:37;;;;;;;12.13;2.10;;;7.90;99.90;;;8.27;100.00;96290.59;5039434;28;20496;-77
2021/12/28 03:03:11;;;;;;;10.13;2.10;;;7.80;99.90;;;8.28;100.00;96294.84;5045476;28;20460;-77
2021/12/28 03:05:47;;;;;;;11.77;2.60;;;7.80;99.90;;;8.28;100.00;96289.63;5041793;28;20480;-77
2021/12/28 03:08:22;;;;;;;13.87;2.27;;;7.80;99.90;;;8.28;100.00;96289.63;5044696;28;20522;-77
2021/12/28 03:10:54;;;;;;;10.10;2.70;;;7.70;99.90;;;8.28;100.00;96284.41;5042712;28;20507;-77
2021/12/28 03:13:26;;;;;;;6.53;1.80;;;7.80;99.90;;;8.29;100.00;96278.22;5041533;28;20546;-77
2021/12/28 03:15:57;;;;;;;16.30;2.30;;;7.80;99.90;;;8.29;100.00;96280.00;5049137;28;20495;-77
2021/12/28 03:18:27;;;;;;;6.97;2.00;;;7.80;99.90;;;8.29;100.00;96270.41;5042581;28;20461;-77
2021/12/28 03:20:57;;;;;;;10.73;2.30;;;7.80;99.90;;;8.30;100.00;96264.16;5050045;28;20947;-77
2021/12/28 03:23:29;;;;;;;11.70;2.30;;;7.90;99.90;;;8.30;100.00;96256.34;5050351;28;20523;-77
2021/12/28 03:25:59;;;;;;;8.23;2.43;;;7.80;99.90;;;8.30;100.00;96261.56;5039235;28;20540;-77
2021/12/28 03:28:32;;;;;;;4.43;2.10;;;7.80;99.90;;;8.29;100.00;96254.78;5037812;28;20453;-77
2021/12/28 03:31:08;;;;;;;5.03;2.23;;;7.80;99.90;;;8.31;100.00;96257.16;5042897;28;20456;-77
2021/12/28 03:33:41;;;;;;;5.97;1.90;;;7.90;99.90;;;8.31;100.00;96252.72;5038376;28;20760;-77
2021/12/28 03:36:10;;;;;;;6.40;1.87;;;7.90;99.90;;;8.31;100.00;96252.72;5043853;28;20954;-77
2021/12/28 03:38:44;;;;;;;6.00;1.90;;;7.90;99.90;;;8.32;100.00;96245.72;5047503;28;20461;-77
2021/12/28 03:41:17;;;;;;;5.63;1.70;;;8.00;99.90;;;8.34;100.00;96252.31;5042227;28;20458;-77
2021/12/28 03:43:51;;;;;;;10.97;1.83;;;8.00;99.90;;;8.36;100.00;96245.09;5038213;28;21108;-77
2021/12/28 03:46:23;;;;;;;7.60;2.00;;;8.00;99.90;;;8.35;100.00;96237.47;5042912;28;21008;-77
2021/12/28 03:48:53;;;;;;;8.97;1.67;;;7.90;99.90;;;8.37;100.00;96230.22;5038254;28;20468;-77
2021/12/28 03:51:23;;;;;;;2.33;1.10;;;8.00;99.90;;;8.37;100.00;96233.63;5040898;28;20462;-77
2021/12/28 03:53:54;;;;;;;7.90;1.77;;;8.00;99.90;;;8.38;100.00;96224.00;5045246;28;20530;-77
2021/12/28 03:56:24;;;;;;;2.73;1.10;;;8.00;99.90;;;8.38;100.00;96221.41;5042262;28;20510;-77
2021/12/28 03:58:54;;;;;;;5.23;1.40;;;8.00;99.90;;;8.40;100.00;96227.22;5042890;28;20532;-77
2021/12/28 04:01:27;;;;;;;5.20;1.40;;;8.00;99.90;;;8.40;100.00;96208.97;5044383;28;20554;-77
2021/12/28 04:03:57;;;;;;;3.67;1.53;;;7.90;99.90;;;8.39;100.00;96208.19;5043182;28;20563;-77
2021/12/28 04:06:28;;;;;;;2.00;1.20;;;7.90;99.90;;;8.39;100.00;96217.81;5042552;28;20464;-77
2021/12/28 04:09:03;;;;;;;2.10;1.60;;;8.00;99.90;;;8.39;100.00;96212.59;5041635;28;20465;-77
2021/12/28 04:11:33;;;;;;;6.23;1.40;;;7.90;99.90;;;8.38;100.00;96209.19;5036442;28;20809;-77
2021/12/28 04:14:08;;;;;;;4.97;1.17;;;7.90;99.90;;;8.39;100.00;96202.97;5041038;28;20515;-77
2021/12/28 04:16:38;;;;;;;3.60;1.40;;;8.00;99.90;;;8.40;100.00;96204.53;5038123;28;21153;-77
2021/12/28 04:19:07;;;;;;;2.07;1.20;;;8.00;99.90;;;8.42;100.00;96204.34;5039673;28;20465;-77
2021/12/28 04:21:38;;;;;;;3.23;0.93;;;8.00;99.90;;;8.42;100.00;96206.94;5040891;28;20546;-78
2021/12/28 04:24:09;;;;;;;1.17;1.07;;;8.00;99.90;;;8.42;100.00;96188.72;5042461;28;20488;-77
2021/12/28 04:26:39;;;;;;;5.60;1.37;;;8.00;99.90;;;8.43;100.00;96192.91;5039926;28;20504;-78
2021/12/28 04:29:09;;;;;;;1.77;0.80;;;8.00;99.90;;;8.44;100.00;96190.06;5044669;28;20497;-77
2021/12/28 04:31:40;;;;;;;1.73;1.10;;;8.00;99.90;;;8.43;100.00;96193.72;5037280;28;20495;-78
2021/12/28 04:34:10;;;;;;;5.13;1.20;;;8.00;99.90;;;8.43;100.00;96201.53;5040800;28;20471;-78
2021/12/28 04:36:40;;;;;;;5.03;1.00;;;7.90;99.90;;;8.44;100.00;96207.50;5037184;28;20461;-78
2021/12/28 04:39:12;;;;;;;1.27;0.90;;;7.90;99.90;;;8.43;100.00;96206.75;5041244;28;20980;-78
2021/12/28 04:41:43;;;;;;;1.10;1.00;;;7.90;99.90;;;8.44;100.00;96195.28;5046266;28;20485;-77
2021/12/28 04:44:13;;;;;;;3.53;1.40;;;8.00;99.90;;;8.43;100.00;96196.31;5035791;28;20458;-77
2021/12/28 04:46:44;;;;;;;5.50;2.00;;;8.10;99.90;;;8.44;100.00;96190.06;5037556;28;20485;-77
2021/12/28 04:49:15;;;;;;;3.07;1.30;;;8.00;99.90;;;8.44;100.00;96186.66;5042682;28;20484;-78
2021/12/28 04:51:46;;;;;;;1.67;1.20;;;8.00;99.90;;;8.43;100.00;96188.50;5037048;28;20516;-77
2021/12/28 04:54:18;;;;;;;4.10;1.00;;;7.90;99.90;;;8.44;100.00;96184.88;5038287;28;20485;-78
2021/12/28 04:56:48;;;;;;;1.67;1.20;;;8.00;99.90;;;8.44;100.00;96179.66;5046979;28;20521;-80
2021/12/28 04:59:19;;;;;;;8.40;3.10;;;8.00;99.90;;;8.43;100.00;96185.91;5036683;28;20678;-77
2021/12/28 05:01:50;;;;;;;6.17;3.67;;;7.90;99.90;;;8.42;100.00;96181.69;5035358;28;20596;-77
2021/12/28 05:04:21;;;;;;;3.20;1.77;;;7.90;99.90;;;8.42;100.00;96173.88;5045225;28;20488;-77
2021/12/28 05:06:52;;;;;;;2.13;1.13;;;7.90;99.90;;;8.44;100.00;96174.44;5037646;28;20572;-78
2021/12/28 05:09:23;;;;;;;1.20;0.90;;;8.00;99.90;;;8.45;100.00;96167.44;5040779;28;20456;-78
2021/12/28 05:11:53;;;;;;;3.03;1.60;;;8.00;99.90;;;8.44;100.00;96163.22;5034234;28;20473;-78
2021/12/28 05:14:23;;;;;;;9.07;1.40;;;8.00;99.90;;;8.45;100.00;96170.84;5048126;28;20492;-76
2021/12/28 05:16:53;;;;;;;12.17;4.50;;;8.00;99.90;;;8.42;100.00;96160.88;5035294;28;20468;-80
2021/12/28 05:19:24;;;;;;;14.90;5.20;;;7.90;99.90;;;8.42;100.00;96155.66;5036567;28;20553;-76
2021/12/28 05:21:55;;;;;;;4.10;2.20;;;7.90;99.90;;;8.42;100.00;96150.44;5040561;28;20498;-76
2021/12/28 05:24:26;;;;;;;30.17;1.70;;;7.90;99.90;;;8.41;100.00;96156.66;5042577;28;20518;-76
2021/12/28 05:26:56;;;;;;;2.70;1.17;;;7.90;99.90;;;8.43;100.00;96146.84;5041528;28;20499;-77
2021/12/28 05:29:26;;;;;;;1.60;1.10;;;8.00;99.90;;;8.41;100.00;96138.44;5043986;28;20515;-77
2021/12/28 05:31:58;;;;;;;4.27;1.00;;;8.00;99.90;;;8.41;100.00;96142.84;5045329;28;20511;-77
2021/12/28 05:34:28;;;;;;;2.40;0.90;;;7.90;99.90;;;8.44;100.00;96147.59;5043341;28;20899;-76
2021/12/28 05:36:57;;;;;;;1.03;0.80;;;8.00;99.90;;;8.41;100.00;96138.44;5042922;28;20476;-77
2021/12/28 05:39:29;;;;;;;2.47;0.90;;;7.90;99.90;;;8.37;100.00;96133.88;5039476;28;20495;-76
2021/12/28 05:41:59;;;;;;;4.83;0.93;;;7.80;99.90;;;8.38;100.00;96127.66;5042003;28;20496;-80
2021/12/28 05:44:28;;;;;;;10.63;4.00;;;7.80;99.90;;;8.38;100.00;96127.66;5039349;28;20531;-77
2021/12/28 05:46:59;;;;;;;3.60;1.03;;;7.90;99.90;;;8.37;100.00;96124.25;5042370;28;20524;-77
2021/12/28 05:49:29;;;;;;;2.93;1.00;;;8.00;99.90;;;8.35;100.00;96117.69;5038363;28;20461;-80
2021/12/28 05:51:57;;;;;;;23.53;10.40;;;7.90;99.90;;;8.33;100.00;96122.34;5045961;28;20514;-77
2021/12/28 05:54:27;;;;;;;5.53;1.60;;;7.80;99.90;;;8.33;100.00;96114.53;5045864;28;20473;-75
2021/12/28 05:56:57;;;;;;;1.30;0.90;;;7.80;99.90;;;8.33;100.00;96117.13;5044667;28;20560;-75
2021/12/28 05:59:26;;;;;;;2.50;0.93;;;7.70;99.90;;;8.29;100.00;96114.16;5050470;28;20449;-75
2021/12/28 06:01:56;;;;;;;1.67;0.97;;;7.70;99.90;;;8.30;100.00;96118.34;5043804;28;21166;-76
2021/12/28 06:04:25;;;;;;;4.03;1.30;;;7.70;99.90;;;8.26;100.00;96113.78;5042467;28;20876;-76
2021/12/28 06:06:55;;;;;;;1.33;0.90;;;7.70;99.90;;;8.23;100.00;96109.00;5043222;28;20965;-76
2021/12/28 06:09:25;;;;;;;0.80;0.80;;;7.60;99.90;;;8.18;100.00;96112.28;5050141;28;20438;-76
2021/12/28 06:11:58;;;;;;;2.00;0.90;;;7.50;99.90;;;8.19;100.00;96113.84;5045005;28;20475;-75
2021/12/28 06:14:28;;;;;;;1.50;1.00;;;7.60;99.90;;;8.15;100.00;96101.50;5054660;28;20815;-76
2021/12/28 06:16:59;;;;;;;2.30;0.90;;;7.50;99.90;;;8.09;100.00;96105.75;5054224;28;20442;-76
2021/12/28 06:19:32;;;;;;;1.73;1.10;;;7.40;99.90;;;8.02;100.00;96098.03;5042427;28;20983;-76
2021/12/28 06:22:03;;;;;;;6.20;1.00;;;7.30;99.90;;;8.04;100.00;96100.44;5057490;28;20496;-76
2021/12/28 06:24:32;;;;;;;1.57;0.90;;;7.30;99.90;;;8.03;100.00;96098.84;5045527;28;20801;-75
2021/12/28 06:27:03;;;;;;;4.50;1.00;;;7.30;99.90;;;7.99;100.00;96100.28;5057454;28;20459;-75
2021/12/28 06:29:33;;;;;;;1.60;1.10;;;7.30;99.90;;;7.96;100.00;96101.53;5049056;28;20448;-75
2021/12/28 06:32:04;;;;;;;3.03;1.47;;;7.20;99.90;;;7.99;100.00;96097.69;5043056;28;20599;-75
2021/12/28 06:34:34;;;;;;;2.20;1.13;;;7.40;99.90;;;7.97;100.00;96102.31;5037925;28;20458;-75
2021/12/28 06:37:05;;;;;;;1.00;0.90;;;7.30;99.90;;;7.92;100.00;96115.19;5048168;28;20447;-75
2021/12/28 06:39:34;;;;;;;7.40;1.13;;;7.20;99.90;;;7.91;100.00;96108.41;5048842;28;20874;-75
2021/12/28 06:42:07;;;;;;;2.90;1.20;;;7.20;99.90;;;7.90;100.00;96105.00;5047609;28;20500;-75
2021/12/28 06:44:36;;;;;;;3.00;0.90;;;7.10;99.90;;;7.88;100.00;96111.44;5048350;28;20519;-75
2021/12/28 06:47:06;;;;;;;8.00;1.10;;;7.10;99.90;;;7.91;100.00;96108.41;5049286;28;20924;-75
2021/12/28 06:49:39;;;;;;;1.50;0.90;;;7.20;99.90;;;7.93;100.00;96112.38;5048472;28;20445;-75
2021/12/28 06:52:09;;;;;;;5.53;1.00;;;7.20;99.90;;;7.93;100.00;96124.56;5040634;28;20449;-75
2021/12/28 06:54:39;;;;;;;3.00;0.93;;;7.20;99.90;;;7.93;100.00;96116.78;5052589;28;20883;-75
2021/12/28 06:57:12;;;;;;;2.40;1.10;;;7.20;99.90;;;7.92;100.00;96120.38;5051893;28;20449;-75
2021/12/28 06:59:45;;;;;;;1.80;0.90;;;7.30;99.90;;;7.88;100.00;96111.44;5052063;28;20452;-75
2021/12/28 07:02:17;;;;;;;3.53;1.10;;;7.20;99.90;;;7.85;100.00;96117.06;5040588;28;20531;-75
2021/12/28 07:04:48;;;;;;;2.07;1.10;;;7.10;99.90;;;7.84;100.00;96118.09;5047848;28;20476;-76
2021/12/28 07:07:18;;;;;;;7.20;1.43;;;7.10;99.90;;;7.82;100.00;96112.28;5051801;28;20445;-75
2021/12/28 07:09:49;;;;;;;2.23;2.00;;;7.10;99.90;;;7.86;100.00;96116.06;5050420;28;20445;-75
2021/12/28 07:12:20;;;;;;;3.47;1.63;;;7.20;99.90;;;7.87;100.00;96118.44;5051623;28;20471;-75
2021/12/28 07:14:51;;;;;;;6.40;1.60;;;7.30;99.90;;;7.82;100.00;96123.50;5051247;28;20536;-75
2021/12/28 07:17:21;;;;;;;1.70;1.30;;;7.10;99.90;;;7.81;100.00;96127.09;5047035;28;20791;-75
2021/12/28 07:19:51;;;;;;;2.70;2.30;;;7.10;99.90;;;7.79;100.00;96131.75;5047373;28;20484;-75
2021/12/28 07:22:22;;;;;;;5.13;1.67;;;7.10;99.90;;;7.78;100.00;96131.94;5051375;28;20495;-75
2021/12/28 07:24:52;;;;;;;3.00;1.97;;;7.00;99.90;;;7.80;100.00;96137.75;5050329;28;20449;-75
2021/12/28 07:27:24;;;;;;;4.07;2.30;;;7.10;99.90;;;7.82;100.00;96133.09;5051556;28;20457;-75
2021/12/28 07:29:55;;;;;;;7.23;2.13;;;7.10;99.90;;;7.82;100.00;96139.09;5050850;28;20480;-75
2021/12/28 07:32:24;;;;;;;8.10;2.10;;;7.20;99.90;;;7.83;100.00;96139.91;5049877;28;20480;-75
2021/12/28 07:34:52;;;;;;;4.93;2.13;;;7.10;99.90;;;7.83;100.00;96151.13;5038805;28;20454;-75
2021/12/28 07:37:23;;;;;;;3.20;2.30;;;7.10;99.90;;;7.85;100.00;96156.09;5056701;28;20894;-75
2021/12/28 07:39:53;;;;;;;4.40;2.03;;;7.10;99.90;;;7.85;100.00;96156.09;5046342;28;20461;-75
2021/12/28 07:42:24;;;;;;;7.57;2.47;;;7.10;99.90;;;7.87;100.00;96154.06;5050647;28;20865;-76
2021/12/28 07:44:54;;;;;;;4.47;2.30;;;7.10;99.90;;;7.88;100.00;96147.88;5057445;28;20440;-75
2021/12/28 07:47:25;;;;;;;3.40;2.30;;;7.10;99.90;;;7.89;100.00;96147.63;5049803;28;20506;-75
2021/12/28 07:49:55;;;;;;;9.57;2.37;;;7.10;99.90;;;7.87;100.00;96157.47;5034858;28;20806;-75
2021/12/28 07:52:25;;;;;;;4.10;2.57;;;7.10;99.90;;;7.80;100.00;96156.75;5051674;28;20461;-75
2021/12/28 07:54:55;;;;;;;3.43;2.23;;;7.00;99.90;;;7.79;100.00;96156.97;5051549;28;20450;-75
2021/12/28 07:57:26;;;;;;;2.87;2.30;;;7.00;99.90;;;7.80;100.00;96164.56;5052200;28;20445;-75
2021/12/28 07:59:55;;;;;;;9.13;2.60;;;7.00;99.90;;;7.84;100.00;96168.31;5047096;28;20539;-76
2021/12/28 08:02:24;;;;;;;4.87;2.70;;;7.10;99.90;;;7.87;100.00;96161.88;5049093;28;20516;-76
2021/12/28 08:04:55;;;;;;;4.27;3.23;;;7.10;99.90;;;7.88;100.00;96158.28;5046491;28;20453;-76
2021/12/28 08:07:24;;;;;;;2.50;2.30;;;7.10;99.90;;;7.91;100.00;96150.03;5051901;28;20873;-75
2021/12/28 08:09:54;;;;;;;2.07;1.87;;;7.10;99.90;;;7.95;100.00;96157.16;5049985;28;20445;-75
2021/12/28 08:12:27;;;;;;;2.50;2.27;;;7.20;99.90;;;7.94;100.00;96183.44;5050728;28;20460;-75
2021/12/28 08:14:56;;;;;;;8.37;2.80;;;7.20;99.90;;;7.93;100.00;96192.25;5057197;28;20464;-75
2021/12/28 08:17:29;;;;;;;5.23;3.10;;;7.20;99.90;;;7.98;100.00;96202.81;5048892;28;20476;-75
2021/12/28 08:19:58;;;;;;;2.93;2.53;;;7.30;99.90;;;7.99;100.00;96206.97;5047113;28;20996;-75
2021/12/28 08:22:28;;;;;;;2.83;2.30;;;7.30;99.90;;;8.01;100.00;96205.78;5057833;28;20531;-75
2021/12/28 08:24:59;;;;;;;7.13;2.77;;;7.30;99.90;;;8.03;100.00;96219.34;5050473;28;20446;-75
2021/12/28 08:27:30;;;;;;;8.17;2.80;;;7.30;99.90;;;8.06;100.00;96218.91;5045884;28;20445;-75
2021/12/28 08:30:00;;;;;;;4.43;2.87;;;7.40;99.90;;;8.11;100.00;96207.88;5053510;28;20478;-75
2021/12/28 08:32:30;;;;;;;5.97;3.40;;;7.40;99.90;;;8.14;100.00;96201.44;5049203;28;20473;-75
2021/12/28 08:35:00;;;;;;;5.13;3.30;;;7.40;99.90;;;8.14;100.00;96217.03;5047597;28;20766;-76
2021/12/28 08:37:30;;;;;;;4.23;3.57;;;7.40;99.90;;;8.17;100.00;96219.22;5049305;28;20472;-75
2021/12/28 08:39:59;;;;;;;5.87;3.47;;;7.50;99.90;;;8.18;100.00;96219.00;5049965;28;20887;-75
2021/12/28 08:42:30;;;;;;;6.87;3.90;;;7.50;99.90;;;8.19;100.00;96217.97;5049181;28;20531;-75
2021/12/28 08:45:01;;;;;;;5.50;3.93;;;7.50;99.90;;;8.21;100.00;96210.75;5048653;28;20473;-75
2021/12/28 08:47:32;;;;;;;7.17;3.60;;;7.50;99.90;;;8.24;100.00;96210.31;5050086;28;20461;-75
2021/12/28 08:50:01;;;;;;;6.83;3.80;;;7.50;99.90;;;8.26;100.00;96208.28;5047085;28;20465;-76
2021/12/28 08:52:31;;;;;;;7.07;4.10;;;7.60;99.90;;;8.28;100.00;96215.88;5049828;28;21065;-75
2021/12/28 08:55:01;;;;;;;11.57;3.57;;;7.60;99.90;;;8.30;100.00;96214.69;5041360;28;20443;-75
2021/12/28 08:57:33;;;;;;;8.17;3.57;;;7.60;99.90;;;8.33;100.00;96231.69;5050112;28;20449;-75
2021/12/28 09:00:02;;;;;;;5.33;3.50;;;7.60;99.90;;;8.36;100.00;96223.44;5049592;28;20473;-75
2021/12/28 09:02:32;;;;;;;3.83;3.23;;;7.70;99.90;;;8.39;100.00;96243.84;5049494;28;20592;-75
2021/12/28 09:05:02;;;;;;;9.43;3.40;;;7.80;99.90;;;8.40;100.00;96241.00;5041123;28;20841;-75
2021/12/28 09:07:33;;;;;;;13.20;3.50;;;7.70;99.90;;;8.43;100.00;96239.78;5045628;28;20452;-75
2021/12/28 09:10:02;;;;;;;5.20;3.67;;;7.80;99.90;;;8.46;100.00;96250.56;5049176;28;20452;-75
2021/12/28 09:12:33;;;;;;;4.93;3.90;;;7.90;99.90;;;8.49;100.00;96254.53;5042326;28;20527;-75
2021/12/28 09:15:02;;;;;;;6.70;3.10;;;7.90;99.90;;;8.50;100.00;96246.50;5056291;28;20453;-75
2021/12/28 09:17:33;;;;;;;8.60;3.47;;;7.80;99.90;;;8.52;100.00;96243.69;5047970;28;20449;-75
2021/12/28 09:20:07;;;;;;;4.83;3.77;;;7.90;99.90;;;8.55;100.00;96249.25;5045293;28;20477;-75
2021/12/28 09:22:44;;;;;;;5.93;3.77;;;7.90;99.90;;;8.57;100.00;96244.63;5047413;28;20520;-75
2021/12/28 09:25:15;;;;;;;6.73;3.33;;;8.00;99.90;;;8.60;100.00;96253.81;5044520;28;20442;-75
2021/12/28 09:27:46;;;;;;;6.50;3.60;;;8.00;99.90;;;8.62;100.00;96248.38;5045789;28;20503;-75
2021/12/28 09:30:15;;;;;;;7.47;4.47;;;8.10;99.90;;;8.65;100.00;96245.31;5048697;28;21062;-76
2021/12/28 09:32:45;;;;;;;8.63;5.60;;;8.20;99.90;;;8.68;100.00;96248.28;5047432;28;20460;-75
2021/12/28 09:35:16;;;;;;;6.80;4.63;;;8.20;99.90;;;8.71;100.00;96253.06;5042785;28;20438;-76
2021/12/28 09:37:45;;;;;;;3.17;2.90;;;8.30;99.90;;;8.74;100.00;96249.25;5048214;28;20991;-76
2021/12/28 09:40:16;;;;;;;4.73;3.57;;;8.30;99.90;;;8.74;100.00;96255.25;5047189;28;20515;-76
2021/12/28 09:42:47;;;;;;;4.43;3.10;;;8.20;99.90;;;8.76;100.00;96258.44;5046612;28;20493;-77
2021/12/28 09:45:17;;;;;;;4.50;3.63;;;8.20;99.90;;;8.79;100.00;96257.19;5044218;28;20476;-75
2021/12/28 09:47:47;;;;;;;4.00;3.60;;;8.20;99.90;;;8.80;100.00;96256.97;5049117;28;20857;-75
2021/12/28 09:50:19;;;;;;;3.83;3.20;;;8.20;99.90;;;8.85;100.00;96253.72;5048684;28;20441;-75
2021/12/28 09:52:52;;;;;;;7.33;4.13;;;8.30;99.90;;;8.87;100.00;96254.28;5043263;28;20457;-76
2021/12/28 09:55:25;;;;;;;5.63;4.10;;;8.30;99.90;;;8.92;100.00;96247.38;5046699;28;20449;-75
2021/12/28 09:57:59;;;;;;;10.70;3.60;;;8.30;99.90;;;8.95;100.00;96248.78;5045470;28;20480;-75
2021/12/28 10:00:30;;;;;;;3.23;2.30;;;8.40;99.90;;;9.01;100.00;96245.28;5038032;28;20511;-75
2021/12/28 10:03:15;;;;;;;2.10;1.90;;;8.50;99.90;;;9.04;100.00;96242.22;5043665;28;20599;-76
2021/12/28 10:05:45;;;;;;;4.07;1.77;;;8.50;99.90;;;9.08;100.00;96243.38;5046775;28;20847;-76
2021/12/28 10:08:16;;;;;;;1.70;1.57;;;8.50;99.90;;;9.12;100.00;96244.53;5048731;28;20445;-75
2021/12/28 10:10:47;;;;;;;3.33;1.87;;;8.60;99.90;;;9.14;100.00;96247.69;5048539;28;20445;-76
2021/12/28 10:13:22;;;;;;;6.83;2.83;;;8.60;99.90;;;9.19;100.00;96250.44;5048240;28;20465;-75
2021/12/28 10:15:54;;;;;;;3.33;2.27;;;8.70;99.90;;;9.25;100.00;96252.16;5038682;28;20445;-75
2021/12/28 10:18:25;;;;;;;2.30;2.07;;;8.80;99.90;;;9.29;100.00;96244.69;5051642;28;21038;-76
2021/12/28 10:20:59;;;;;;;1.80;1.57;;;8.80;99.90;;;9.33;100.00;96241.41;5047811;28;20571;-75
2021/12/28 10:23:33;;;;;;;1.27;1.10;;;8.90;99.90;;;9.38;100.00;96233.69;5048374;28;20501;-75
2021/12/28 10:26:07;;;;;;;1.47;1.37;;;8.90;99.90;;;9.44;100.00;96237.25;5048058;28;20441;-75
2021/12/28 10:28:40;;;;;;;1.27;1.17;;;9.00;99.90;;;9.49;100.00;96230.31;5051555;28;20479;-76
2021/12/28 10:31:19;;;;;;;1.20;1.07;;;9.10;99.90;;;9.54;100.00;96229.66;5048299;28;20468;-75
2021/12/28 10:33:56;;;;;;;1.17;1.07;;;9.10;99.90;;;9.59;100.00;96230.56;5048638;28;20441;-76
2021/12/28 10:36:37;;;;;;;2.97;1.70;;;9.20;99.90;;;9.66;100.00;96224.44;5052306;28;20449;-76
2021/12/28 10:39:08;;;;;;;1.77;1.20;;;9.20;99.90;;;9.73;100.00;96230.34;5051444;28;21015;-76